Country
Station

 

Weather  for  McConnell Air Force Base  -  United States    United States

  
-2 °C (28 °F)
    
 
 

Current METAR for McConnell Air Force Base is :

KIAB 210756Z AUTO 15009KT 10SM CLR M02/M06 A3009 RMK AO2 SLP204 T10231058

 

This is a report for McConnell Air Force Base - United States.
 
The report was made 37 minutes ago, at 07:56 UTC .
The wind was blowing at a speed of 4.6 meters per second (10.4 miles per hour) from south/southeast (150°).
 
The temperature was -2 °C (28 °F), with a dew-point at -6 °C (21 °F).
The temperature felt like -7 °C (19 °F).
 
The atmospheric pressure was 1019 hPa (30.09 inHg).
The relative humidity was 74.0%.
 
The sky was clear.
 
The overall visibility was 16.1 kilometers (10.0 miles).
 

 
 
 
 

Country :   A   B   C   D   E   F   G   H   I   J   K   L   M   N   O   P   Q   R   S   T   U   V   W   Y   Z

 

Site Info  |  Disclaimer  |  Credits  |  Privacy
Contact us  |  Add to favorites
© 2013-2019 METARs - All rights reserved